sensor_id;sensor_type;location;lat;lon;timestamp;P1;durP1;ratioP1;P2;durP2;ratioP2
36653;SDS011;22650;49.350;20.898;2023-07-29T00:02:00;585.03;;;226.43;;
36653;SDS011;22650;49.350;20.898;2023-07-29T00:04:34;693.88;;;267.73;;
36653;SDS011;22650;49.350;20.898;2023-07-29T00:07:08;585.95;;;239.65;;
36653;SDS011;22650;49.350;20.898;2023-07-29T00:09:41;612.75;;;250.68;;
36653;SDS011;22650;49.350;20.898;2023-07-29T00:12:15;594.25;;;239.48;;
36653;SDS011;22650;49.350;20.898;2023-07-29T00:14:50;695.33;;;256.48;;
36653;SDS011;22650;49.350;20.898;2023-07-29T00:17:24;596.45;;;195.95;;
36653;SDS011;22650;49.350;20.898;2023-07-29T00:19:57;560.25;;;239.55;;
36653;SDS011;22650;49.350;20.898;2023-07-29T00:22:31;447.20;;;177.48;;
36653;SDS011;22650;49.350;20.898;2023-07-29T00:25:05;569.40;;;225.32;;
36653;SDS011;22650;49.350;20.898;2023-07-29T00:27:39;568.47;;;209.38;;
36653;SDS011;22650;49.350;20.898;2023-07-29T00:30:14;555.75;;;228.27;;
36653;SDS011;22650;49.350;20.898;2023-07-29T00:32:47;636.47;;;213.27;;
36653;SDS011;22650;49.350;20.898;2023-07-29T00:35:21;469.13;;;188.40;;
36653;SDS011;22650;49.350;20.898;2023-07-29T00:37:55;811.47;;;281.67;;
36653;SDS011;22650;49.350;20.898;2023-07-29T00:40:28;761.33;;;300.20;;
36653;SDS011;22650;49.350;20.898;2023-07-29T00:43:03;716.78;;;284.70;;
36653;SDS011;22650;49.350;20.898;2023-07-29T00:45:41;715.25;;;273.10;;
36653;SDS011;22650;49.350;20.898;2023-07-29T00:48:18;663.63;;;258.90;;
36653;SDS011;22650;49.350;20.898;2023-07-29T00:50:53;758.05;;;290.30;;
36653;SDS011;22650;49.350;20.898;2023-07-29T00:53:27;696.85;;;264.55;;
36653;SDS011;22650;49.350;20.898;2023-07-29T00:56:01;746.38;;;267.60;;
36653;SDS011;22650;49.350;20.898;2023-07-29T00:58:35;968.10;;;361.27;;
36653;SDS011;22650;49.350;20.898;2023-07-29T01:01:10;857.70;;;344.73;;
36653;SDS011;22650;49.350;20.898;2023-07-29T01:03:44;972.50;;;375.90;;
36653;SDS011;22650;49.350;20.898;2023-07-29T01:06:21;938.13;;;356.75;;
36653;SDS011;22650;49.350;20.898;2023-07-29T01:09:02;805.15;;;316.05;;
36653;SDS011;22650;49.350;20.898;2023-07-29T01:11:41;722.75;;;297.52;;
36653;SDS011;22650;49.350;20.898;2023-07-29T01:14:21;773.70;;;289.13;;
36653;SDS011;22650;49.350;20.898;2023-07-29T01:17:08;1380.63;;;464.27;;
36653;SDS011;22650;49.350;20.898;2023-07-29T01:19:48;755.15;;;254.93;;
36653;SDS011;22650;49.350;20.898;2023-07-29T01:22:32;697.88;;;248.07;;
36653;SDS011;22650;49.350;20.898;2023-07-29T01:25:08;765.40;;;253.00;;
36653;SDS011;22650;49.350;20.898;2023-07-29T01:27:44;709.13;;;263.38;;
36653;SDS011;22650;49.350;20.898;2023-07-29T01:30:19;660.20;;;245.00;;
36653;SDS011;22650;49.350;20.898;2023-07-29T01:32:56;553.88;;;200.27;;
36653;SDS011;22650;49.350;20.898;2023-07-29T01:35:39;630.57;;;271.53;;
36653;SDS011;22650;49.350;20.898;2023-07-29T01:38:18;635.80;;;249.18;;
36653;SDS011;22650;49.350;20.898;2023-07-29T01:40:55;672.72;;;237.80;;
36653;SDS011;22650;49.350;20.898;2023-07-29T01:43:31;783.03;;;275.17;;
36653;SDS011;22650;49.350;20.898;2023-07-29T01:46:05;675.08;;;268.55;;
36653;SDS011;22650;49.350;20.898;2023-07-29T01:48:38;747.38;;;260.42;;
36653;SDS011;22650;49.350;20.898;2023-07-29T01:51:12;691.95;;;255.57;;
36653;SDS011;22650;49.350;20.898;2023-07-29T01:53:46;702.92;;;271.10;;
36653;SDS011;22650;49.350;20.898;2023-07-29T01:56:22;748.40;;;258.83;;
36653;SDS011;22650;49.350;20.898;2023-07-29T01:58:59;748.45;;;297.05;;
36653;SDS011;22650;49.350;20.898;2023-07-29T02:01:33;795.20;;;323.60;;
36653;SDS011;22650;49.350;20.898;2023-07-29T02:04:06;773.15;;;304.30;;
36653;SDS011;22650;49.350;20.898;2023-07-29T02:06:40;671.10;;;212.02;;
36653;SDS011;22650;49.350;20.898;2023-07-29T02:09:14;468.08;;;178.73;;
36653;SDS011;22650;49.350;20.898;2023-07-29T02:11:49;664.67;;;232.25;;
36653;SDS011;22650;49.350;20.898;2023-07-29T02:14:23;565.03;;;217.25;;
36653;SDS011;22650;49.350;20.898;2023-07-29T02:16:56;721.13;;;268.15;;
36653;SDS011;22650;49.350;20.898;2023-07-29T02:19:30;667.40;;;255.43;;
36653;SDS011;22650;49.350;20.898;2023-07-29T02:22:04;586.92;;;245.55;;
36653;SDS011;22650;49.350;20.898;2023-07-29T02:24:38;758.58;;;305.92;;
36653;SDS011;22650;49.350;20.898;2023-07-29T02:27:13;622.13;;;220.70;;
36653;SDS011;22650;49.350;20.898;2023-07-29T02:29:46;595.88;;;212.77;;
36653;SDS011;22650;49.350;20.898;2023-07-29T02:32:20;572.63;;;218.98;;
36653;SDS011;22650;49.350;20.898;2023-07-29T02:34:54;619.75;;;190.18;;
36653;SDS011;22650;49.350;20.898;2023-07-29T02:37:28;557.70;;;229.07;;
36653;SDS011;22650;49.350;20.898;2023-07-29T02:40:01;766.40;;;292.40;;
36653;SDS011;22650;49.350;20.898;2023-07-29T02:42:37;763.83;;;293.77;;
36653;SDS011;22650;49.350;20.898;2023-07-29T02:45:10;738.90;;;294.02;;
36653;SDS011;22650;49.350;20.898;2023-07-29T02:47:44;752.72;;;304.65;;
36653;SDS011;22650;49.350;20.898;2023-07-29T02:50:18;908.92;;;316.45;;
36653;SDS011;22650;49.350;20.898;2023-07-29T02:52:52;698.80;;;284.75;;
36653;SDS011;22650;49.350;20.898;2023-07-29T02:55:26;734.97;;;270.05;;
36653;SDS011;22650;49.350;20.898;2023-07-29T02:58:01;714.97;;;287.35;;
36653;SDS011;22650;49.350;20.898;2023-07-29T03:00:34;671.28;;;280.00;;
36653;SDS011;22650;49.350;20.898;2023-07-29T03:03:08;749.70;;;269.42;;
36653;SDS011;22650;49.350;20.898;2023-07-29T03:05:42;587.05;;;216.90;;
36653;SDS011;22650;49.350;20.898;2023-07-29T03:08:16;526.22;;;204.93;;
36653;SDS011;22650;49.350;20.898;2023-07-29T03:10:49;599.78;;;186.13;;
36653;SDS011;22650;49.350;20.898;2023-07-29T03:13:24;626.35;;;181.80;;
36653;SDS011;22650;49.350;20.898;2023-07-29T03:16:04;436.02;;;148.32;;
36653;SDS011;22650;49.350;20.898;2023-07-29T03:18:38;440.42;;;175.02;;
36653;SDS011;22650;49.350;20.898;2023-07-29T03:21:12;458.77;;;162.85;;
36653;SDS011;22650;49.350;20.898;2023-07-29T03:23:45;577.75;;;221.77;;
36653;SDS011;22650;49.350;20.898;2023-07-29T03:26:19;580.20;;;224.20;;
36653;SDS011;22650;49.350;20.898;2023-07-29T03:28:54;777.80;;;301.05;;
36653;SDS011;22650;49.350;20.898;2023-07-29T03:31:28;691.92;;;275.00;;
36653;SDS011;22650;49.350;20.898;2023-07-29T03:34:01;675.72;;;250.80;;
36653;SDS011;22650;49.350;20.898;2023-07-29T03:36:35;781.35;;;276.17;;
36653;SDS011;22650;49.350;20.898;2023-07-29T03:39:09;634.42;;;225.10;;
36653;SDS011;22650;49.350;20.898;2023-07-29T03:41:43;544.80;;;180.40;;
36653;SDS011;22650;49.350;20.898;2023-07-29T03:44:18;569.03;;;190.73;;
36653;SDS011;22650;49.350;20.898;2023-07-29T03:46:52;654.45;;;250.48;;
36653;SDS011;22650;49.350;20.898;2023-07-29T03:49:26;730.28;;;271.25;;
36653;SDS011;22650;49.350;20.898;2023-07-29T03:52:00;505.25;;;179.15;;
36653;SDS011;22650;49.350;20.898;2023-07-29T03:54:34;474.35;;;187.02;;
36653;SDS011;22650;49.350;20.898;2023-07-29T03:57:08;468.85;;;174.70;;
36653;SDS011;22650;49.350;20.898;2023-07-29T03:59:43;483.95;;;157.90;;
36653;SDS011;22650;49.350;20.898;2023-07-29T04:02:17;476.20;;;184.80;;
36653;SDS011;22650;49.350;20.898;2023-07-29T04:04:51;509.85;;;182.30;;
36653;SDS011;22650;49.350;20.898;2023-07-29T04:07:25;491.23;;;159.25;;
36653;SDS011;22650;49.350;20.898;2023-07-29T04:09:59;451.23;;;146.85;;
36653;SDS011;22650;49.350;20.898;2023-07-29T04:12:34;471.40;;;180.88;;
36653;SDS011;22650;49.350;20.898;2023-07-29T04:15:09;477.92;;;153.20;;
36653;SDS011;22650;49.350;20.898;2023-07-29T04:17:43;581.60;;;221.10;;
36653;SDS011;22650;49.350;20.898;2023-07-29T04:20:17;633.25;;;232.18;;
36653;SDS011;22650;49.350;20.898;2023-07-29T04:22:50;448.30;;;169.32;;
36653;SDS011;22650;49.350;20.898;2023-07-29T04:25:24;556.28;;;198.48;;
36653;SDS011;22650;49.350;20.898;2023-07-29T04:27:58;514.17;;;204.13;;
36653;SDS011;22650;49.350;20.898;2023-07-29T04:30:33;492.92;;;212.10;;
36653;SDS011;22650;49.350;20.898;2023-07-29T04:33:07;683.83;;;236.85;;
36653;SDS011;22650;49.350;20.898;2023-07-29T04:35:41;425.85;;;167.85;;
36653;SDS011;22650;49.350;20.898;2023-07-29T04:38:15;550.92;;;207.23;;
36653;SDS011;22650;49.350;20.898;2023-07-29T04:40:49;583.50;;;224.38;;
36653;SDS011;22650;49.350;20.898;2023-07-29T04:43:23;597.35;;;255.85;;
36653;SDS011;22650;49.350;20.898;2023-07-29T04:46:01;520.28;;;212.63;;
36653;SDS011;22650;49.350;20.898;2023-07-29T04:48:35;681.63;;;254.63;;
36653;SDS011;22650;49.350;20.898;2023-07-29T04:51:08;798.67;;;290.50;;
36653;SDS011;22650;49.350;20.898;2023-07-29T04:53:44;568.75;;;231.18;;
36653;SDS011;22650;49.350;20.898;2023-07-29T04:56:18;692.22;;;260.30;;
36653;SDS011;22650;49.350;20.898;2023-07-29T04:58:52;561.55;;;229.95;;
36653;SDS011;22650;49.350;20.898;2023-07-29T05:01:27;556.97;;;235.80;;
36653;SDS011;22650;49.350;20.898;2023-07-29T05:04:01;674.63;;;259.63;;
36653;SDS011;22650;49.350;20.898;2023-07-29T05:06:35;514.85;;;214.38;;
36653;SDS011;22650;49.350;20.898;2023-07-29T05:09:12;517.17;;;226.65;;
36653;SDS011;22650;49.350;20.898;2023-07-29T05:11:47;651.78;;;263.40;;
36653;SDS011;22650;49.350;20.898;2023-07-29T05:14:21;622.38;;;285.25;;
36653;SDS011;22650;49.350;20.898;2023-07-29T05:16:56;598.92;;;215.88;;
36653;SDS011;22650;49.350;20.898;2023-07-29T05:19:30;596.33;;;235.35;;
36653;SDS011;22650;49.350;20.898;2023-07-29T05:22:04;624.88;;;256.25;;
36653;SDS011;22650;49.350;20.898;2023-07-29T05:24:37;625.28;;;252.75;;
36653;SDS011;22650;49.350;20.898;2023-07-29T05:27:11;557.20;;;206.50;;
36653;SDS011;22650;49.350;20.898;2023-07-29T05:29:45;676.13;;;238.68;;
36653;SDS011;22650;49.350;20.898;2023-07-29T05:32:20;563.03;;;211.98;;
36653;SDS011;22650;49.350;20.898;2023-07-29T05:34:53;613.85;;;236.45;;
36653;SDS011;22650;49.350;20.898;2023-07-29T05:37:27;578.50;;;215.68;;
36653;SDS011;22650;49.350;20.898;2023-07-29T05:40:02;647.97;;;277.55;;
36653;SDS011;22650;49.350;20.898;2023-07-29T05:42:36;754.50;;;316.98;;
36653;SDS011;22650;49.350;20.898;2023-07-29T05:45:10;701.65;;;267.80;;
36653;SDS011;22650;49.350;20.898;2023-07-29T05:47:45;826.03;;;336.70;;
36653;SDS011;22650;49.350;20.898;2023-07-29T05:50:19;620.80;;;257.08;;
36653;SDS011;22650;49.350;20.898;2023-07-29T05:52:53;629.40;;;252.55;;
36653;SDS011;22650;49.350;20.898;2023-07-29T05:55:27;625.33;;;254.90;;
36653;SDS011;22650;49.350;20.898;2023-07-29T05:58:00;499.17;;;193.02;;
36653;SDS011;22650;49.350;20.898;2023-07-29T06:00:34;634.78;;;244.82;;
36653;SDS011;22650;49.350;20.898;2023-07-29T06:03:09;541.70;;;201.68;;
36653;SDS011;22650;49.350;20.898;2023-07-29T06:05:43;449.30;;;196.70;;
36653;SDS011;22650;49.350;20.898;2023-07-29T06:08:17;748.40;;;274.95;;
36653;SDS011;22650;49.350;20.898;2023-07-29T06:10:50;649.85;;;253.93;;
36653;SDS011;22650;49.350;20.898;2023-07-29T06:13:24;992.95;;;399.55;;
36653;SDS011;22650;49.350;20.898;2023-07-29T06:15:58;1016.42;;;413.50;;
36653;SDS011;22650;49.350;20.898;2023-07-29T06:18:33;972.28;;;346.23;;
36653;SDS011;22650;49.350;20.898;2023-07-29T06:21:08;732.50;;;281.05;;
36653;SDS011;22650;49.350;20.898;2023-07-29T06:23:44;864.45;;;335.17;;
36653;SDS011;22650;49.350;20.898;2023-07-29T06:26:17;988.72;;;367.27;;
36653;SDS011;22650;49.350;20.898;2023-07-29T06:28:51;1068.20;;;399.25;;
36653;SDS011;22650;49.350;20.898;2023-07-29T06:31:25;821.90;;;329.17;;
36653;SDS011;22650;49.350;20.898;2023-07-29T06:34:00;854.80;;;321.95;;
36653;SDS011;22650;49.350;20.898;2023-07-29T06:36:33;952.08;;;352.92;;
36653;SDS011;22650;49.350;20.898;2023-07-29T06:39:07;1093.88;;;435.23;;
36653;SDS011;22650;49.350;20.898;2023-07-29T06:41:41;973.85;;;386.85;;
36653;SDS011;22650;49.350;20.898;2023-07-29T06:44:17;1271.93;;;476.95;;
36653;SDS011;22650;49.350;20.898;2023-07-29T06:46:51;1611.00;;;619.00;;
36653;SDS011;22650;49.350;20.898;2023-07-29T06:49:26;1617.50;;;624.97;;
36653;SDS011;22650;49.350;20.898;2023-07-29T06:51:59;1463.60;;;582.40;;
36653;SDS011;22650;49.350;20.898;2023-07-29T06:54:33;1786.25;;;644.15;;
36653;SDS011;22650;49.350;20.898;2023-07-29T06:57:07;1027.85;;;389.55;;
36653;SDS011;22650;49.350;20.898;2023-07-29T06:59:41;1999.90;;;783.72;;
36653;SDS011;22650;49.350;20.898;2023-07-29T07:02:15;1643.93;;;643.28;;
36653;SDS011;22650;49.350;20.898;2023-07-29T07:04:50;1999.90;;;934.42;;
36653;SDS011;22650;49.350;20.898;2023-07-29T07:07:23;1999.90;;;999.90;;
36653;SDS011;22650;49.350;20.898;2023-07-29T07:09:57;1999.90;;;999.90;;
36653;SDS011;22650;49.350;20.898;2023-07-29T07:12:32;1999.90;;;999.90;;
36653;SDS011;22650;49.350;20.898;2023-07-29T07:15:06;1999.90;;;996.40;;
36653;SDS011;22650;49.350;20.898;2023-07-29T07:17:41;1999.90;;;999.90;;
36653;SDS011;22650;49.350;20.898;2023-07-29T07:20:16;1999.90;;;999.90;;
36653;SDS011;22650;49.350;20.898;2023-07-29T07:22:50;1999.90;;;999.90;;
36653;SDS011;22650;49.350;20.898;2023-07-29T07:25:24;1999.90;;;999.90;;
36653;SDS011;22650;49.350;20.898;2023-07-29T07:27:58;1999.90;;;999.90;;
36653;SDS011;22650;49.350;20.898;2023-07-29T07:30:31;1999.90;;;999.90;;
36653;SDS011;22650;49.350;20.898;2023-07-29T07:33:05;1999.90;;;999.90;;
36653;SDS011;22650;49.350;20.898;2023-07-29T07:35:40;1999.90;;;999.90;;
36653;SDS011;22650;49.350;20.898;2023-07-29T07:38:15;1999.90;;;999.90;;
36653;SDS011;22650;49.350;20.898;2023-07-29T07:40:52;1999.90;;;999.90;;
36653;SDS011;22650;49.350;20.898;2023-07-29T07:43:27;1999.90;;;832.55;;
36653;SDS011;22650;49.350;20.898;2023-07-29T07:46:01;1999.90;;;989.53;;
36653;SDS011;22650;49.350;20.898;2023-07-29T07:48:37;1999.90;;;999.90;;
36653;SDS011;22650;49.350;20.898;2023-07-29T07:51:12;1999.90;;;765.47;;
36653;SDS011;22650;49.350;20.898;2023-07-29T07:53:46;1999.90;;;588.13;;
36653;SDS011;22650;49.350;20.898;2023-07-29T07:56:20;1999.90;;;870.67;;
36653;SDS011;22650;49.350;20.898;2023-07-29T07:58:53;1999.90;;;410.90;;
36653;SDS011;22650;49.350;20.898;2023-07-29T08:01:27;1999.90;;;817.63;;
36653;SDS011;22650;49.350;20.898;2023-07-29T08:04:06;1999.90;;;999.90;;
36653;SDS011;22650;49.350;20.898;2023-07-29T08:06:41;1999.90;;;856.03;;
36653;SDS011;22650;49.350;20.898;2023-07-29T08:09:15;1999.90;;;999.90;;
36653;SDS011;22650;49.350;20.898;2023-07-29T08:11:49;1999.90;;;999.90;;
36653;SDS011;22650;49.350;20.898;2023-07-29T08:14:22;1999.90;;;999.90;;
36653;SDS011;22650;49.350;20.898;2023-07-29T08:16:56;1999.90;;;999.90;;
36653;SDS011;22650;49.350;20.898;2023-07-29T08:19:30;1999.90;;;999.90;;
36653;SDS011;22650;49.350;20.898;2023-07-29T08:22:05;1999.90;;;999.90;;
36653;SDS011;22650;49.350;20.898;2023-07-29T08:24:39;1999.90;;;999.90;;
36653;SDS011;22650;49.350;20.898;2023-07-29T08:27:12;1999.90;;;999.90;;
36653;SDS011;22650;49.350;20.898;2023-07-29T08:29:46;1999.90;;;999.90;;
36653;SDS011;22650;49.350;20.898;2023-07-29T08:32:20;1999.90;;;999.90;;
36653;SDS011;22650;49.350;20.898;2023-07-29T08:34:54;1999.90;;;999.90;;
36653;SDS011;22650;49.350;20.898;2023-07-29T08:37:29;1999.90;;;999.90;;
36653;SDS011;22650;49.350;20.898;2023-07-29T08:40:04;1999.90;;;999.90;;
36653;SDS011;22650;49.350;20.898;2023-07-29T08:42:38;1999.90;;;999.90;;
36653;SDS011;22650;49.350;20.898;2023-07-29T08:45:14;1999.90;;;999.90;;
36653;SDS011;22650;49.350;20.898;2023-07-29T08:47:51;1999.90;;;999.90;;
36653;SDS011;22650;49.350;20.898;2023-07-29T08:50:30;1999.90;;;999.90;;
36653;SDS011;22650;49.350;20.898;2023-07-29T08:53:07;1999.90;;;999.90;;
36653;SDS011;22650;49.350;20.898;2023-07-29T08:55:41;1999.90;;;999.90;;
36653;SDS011;22650;49.350;20.898;2023-07-29T08:58:15;1999.90;;;999.90;;
36653;SDS011;22650;49.350;20.898;2023-07-29T09:00:49;1999.90;;;999.90;;
36653;SDS011;22650;49.350;20.898;2023-07-29T09:03:23;1999.90;;;999.90;;
36653;SDS011;22650;49.350;20.898;2023-07-29T09:05:58;1999.90;;;999.90;;
36653;SDS011;22650;49.350;20.898;2023-07-29T09:08:33;1999.90;;;999.90;;
36653;SDS011;22650;49.350;20.898;2023-07-29T09:11:08;1999.90;;;999.90;;
36653;SDS011;22650;49.350;20.898;2023-07-29T09:13:44;1999.90;;;999.90;;
36653;SDS011;22650;49.350;20.898;2023-07-29T09:16:17;1999.90;;;999.90;;
36653;SDS011;22650;49.350;20.898;2023-07-29T09:18:52;1999.90;;;999.90;;
36653;SDS011;22650;49.350;20.898;2023-07-29T09:21:27;1999.90;;;999.90;;
36653;SDS011;22650;49.350;20.898;2023-07-29T09:24:03;1999.90;;;999.90;;
36653;SDS011;22650;49.350;20.898;2023-07-29T09:26:48;1999.90;;;999.90;;
36653;SDS011;22650;49.350;20.898;2023-07-29T09:29:22;1999.90;;;999.90;;
36653;SDS011;22650;49.350;20.898;2023-07-29T09:34:54;1999.90;;;999.90;;
36653;SDS011;22650;49.350;20.898;2023-07-29T09:37:28;1999.90;;;999.90;;
36653;SDS011;22650;49.350;20.898;2023-07-29T09:40:05;1999.90;;;999.90;;
36653;SDS011;22650;49.350;20.898;2023-07-29T09:42:39;1999.90;;;999.90;;
36653;SDS011;22650;49.350;20.898;2023-07-29T09:45:14;1999.90;;;999.90;;
36653;SDS011;22650;49.350;20.898;2023-07-29T09:47:53;1999.90;;;999.90;;
36653;SDS011;22650;49.350;20.898;2023-07-29T09:50:27;1999.90;;;999.90;;
36653;SDS011;22650;49.350;20.898;2023-07-29T09:53:02;1999.90;;;999.90;;
36653;SDS011;22650;49.350;20.898;2023-07-29T09:55:37;1999.90;;;999.90;;
36653;SDS011;22650;49.350;20.898;2023-07-29T09:58:11;1999.90;;;999.90;;
36653;SDS011;22650;49.350;20.898;2023-07-29T10:00:44;1999.90;;;999.90;;
36653;SDS011;22650;49.350;20.898;2023-07-29T10:03:19;1999.90;;;999.90;;
36653;SDS011;22650;49.350;20.898;2023-07-29T10:05:54;1999.90;;;999.90;;
36653;SDS011;22650;49.350;20.898;2023-07-29T10:08:29;1999.90;;;999.90;;
36653;SDS011;22650;49.350;20.898;2023-07-29T10:11:06;1999.90;;;999.90;;
36653;SDS011;22650;49.350;20.898;2023-07-29T10:13:40;1999.90;;;999.90;;
36653;SDS011;22650;49.350;20.898;2023-07-29T10:16:20;1999.90;;;999.90;;
36653;SDS011;22650;49.350;20.898;2023-07-29T10:18:55;1999.90;;;999.90;;
36653;SDS011;22650;49.350;20.898;2023-07-29T10:21:30;1999.90;;;999.90;;
36653;SDS011;22650;49.350;20.898;2023-07-29T10:24:05;1999.90;;;999.90;;
36653;SDS011;22650;49.350;20.898;2023-07-29T10:26:43;1999.90;;;999.90;;
36653;SDS011;22650;49.350;20.898;2023-07-29T10:29:19;1999.90;;;999.90;;
36653;SDS011;22650;49.350;20.898;2023-07-29T10:31:55;1999.90;;;999.90;;
36653;SDS011;22650;49.350;20.898;2023-07-29T10:34:31;1999.90;;;999.90;;
36653;SDS011;22650;49.350;20.898;2023-07-29T10:37:07;1999.90;;;999.90;;
36653;SDS011;22650;49.350;20.898;2023-07-29T10:39:44;1999.90;;;999.90;;
36653;SDS011;22650;49.350;20.898;2023-07-29T10:42:27;1999.90;;;999.90;;
36653;SDS011;22650;49.350;20.898;2023-07-29T10:45:02;1999.90;;;999.90;;
36653;SDS011;22650;49.350;20.898;2023-07-29T10:47:50;1999.90;;;999.90;;
36653;SDS011;22650;49.350;20.898;2023-07-29T10:50:24;1999.90;;;999.90;;
36653;SDS011;22650;49.350;20.898;2023-07-29T10:52:59;1999.90;;;999.90;;
36653;SDS011;22650;49.350;20.898;2023-07-29T10:55:35;1999.90;;;999.90;;
36653;SDS011;22650;49.350;20.898;2023-07-29T10:58:13;1999.90;;;999.90;;
36653;SDS011;22650;49.350;20.898;2023-07-29T11:00:48;1999.90;;;999.90;;
36653;SDS011;22650;49.350;20.898;2023-07-29T11:03:22;1999.90;;;999.90;;
36653;SDS011;22650;49.350;20.898;2023-07-29T11:06:01;1999.90;;;999.90;;
36653;SDS011;22650;49.350;20.898;2023-07-29T11:08:38;1999.90;;;999.90;;
36653;SDS011;22650;49.350;20.898;2023-07-29T11:11:11;1999.90;;;999.90;;
36653;SDS011;22650;49.350;20.898;2023-07-29T11:13:47;1999.90;;;999.90;;
36653;SDS011;22650;49.350;20.898;2023-07-29T11:16:20;1999.90;;;999.90;;
36653;SDS011;22650;49.350;20.898;2023-07-29T11:18:54;1999.90;;;999.90;;
36653;SDS011;22650;49.350;20.898;2023-07-29T11:21:32;1999.90;;;999.90;;
36653;SDS011;22650;49.350;20.898;2023-07-29T11:24:08;1999.90;;;999.90;;
36653;SDS011;22650;49.350;20.898;2023-07-29T11:26:46;1999.90;;;999.90;;
36653;SDS011;22650;49.350;20.898;2023-07-29T11:29:21;1999.90;;;999.90;;
36653;SDS011;22650;49.350;20.898;2023-07-29T11:31:56;1999.90;;;999.90;;
36653;SDS011;22650;49.350;20.898;2023-07-29T11:34:31;1999.90;;;697.92;;
36653;SDS011;22650;49.350;20.898;2023-07-29T11:37:05;1999.90;;;541.03;;
36653;SDS011;22650;49.350;20.898;2023-07-29T11:39:39;1999.90;;;565.97;;
36653;SDS011;22650;49.350;20.898;2023-07-29T11:42:14;1999.90;;;612.67;;
36653;SDS011;22650;49.350;20.898;2023-07-29T11:44:49;1999.90;;;605.55;;
36653;SDS011;22650;49.350;20.898;2023-07-29T11:47:23;1999.90;;;590.00;;
36653;SDS011;22650;49.350;20.898;2023-07-29T11:49:58;1999.90;;;954.72;;
36653;SDS011;22650;49.350;20.898;2023-07-29T11:52:32;1999.90;;;907.17;;
36653;SDS011;22650;49.350;20.898;2023-07-29T11:55:07;1999.90;;;999.90;;
36653;SDS011;22650;49.350;20.898;2023-07-29T11:57:42;1999.90;;;999.90;;
36653;SDS011;22650;49.350;20.898;2023-07-29T12:00:17;1999.90;;;999.90;;
36653;SDS011;22650;49.350;20.898;2023-07-29T12:02:51;1999.90;;;999.90;;
36653;SDS011;22650;49.350;20.898;2023-07-29T12:05:25;1999.90;;;999.90;;
36653;SDS011;22650;49.350;20.898;2023-07-29T12:07:59;1999.90;;;999.90;;
36653;SDS011;22650;49.350;20.898;2023-07-29T12:10:32;1999.90;;;999.90;;
36653;SDS011;22650;49.350;20.898;2023-07-29T12:13:07;1999.90;;;999.90;;
36653;SDS011;22650;49.350;20.898;2023-07-29T12:15:43;1999.90;;;999.90;;
36653;SDS011;22650;49.350;20.898;2023-07-29T12:18:17;1999.90;;;999.90;;
36653;SDS011;22650;49.350;20.898;2023-07-29T12:20:50;1999.90;;;999.90;;
36653;SDS011;22650;49.350;20.898;2023-07-29T12:23:24;1999.90;;;999.90;;
36653;SDS011;22650;49.350;20.898;2023-07-29T12:25:59;1999.90;;;999.90;;
36653;SDS011;22650;49.350;20.898;2023-07-29T12:28:32;1999.90;;;999.90;;
36653;SDS011;22650;49.350;20.898;2023-07-29T12:31:08;1999.90;;;999.90;;
36653;SDS011;22650;49.350;20.898;2023-07-29T12:33:42;1999.90;;;999.90;;
36653;SDS011;22650;49.350;20.898;2023-07-29T12:36:17;1999.90;;;999.90;;
36653;SDS011;22650;49.350;20.898;2023-07-29T12:38:50;1999.90;;;999.90;;
36653;SDS011;22650;49.350;20.898;2023-07-29T12:41:24;1999.90;;;999.90;;
36653;SDS011;22650;49.350;20.898;2023-07-29T12:43:59;1999.90;;;999.90;;
36653;SDS011;22650;49.350;20.898;2023-07-29T12:46:34;1999.90;;;991.70;;
36653;SDS011;22650;49.350;20.898;2023-07-29T12:49:08;1999.90;;;999.90;;
36653;SDS011;22650;49.350;20.898;2023-07-29T12:51:42;1999.90;;;999.90;;
36653;SDS011;22650;49.350;20.898;2023-07-29T12:54:15;1999.90;;;846.90;;
36653;SDS011;22650;49.350;20.898;2023-07-29T12:56:49;1999.90;;;777.42;;
36653;SDS011;22650;49.350;20.898;2023-07-29T12:59:23;1999.90;;;682.03;;
36653;SDS011;22650;49.350;20.898;2023-07-29T13:01:58;1999.90;;;730.33;;
36653;SDS011;22650;49.350;20.898;2023-07-29T13:04:32;1999.90;;;416.65;;
36653;SDS011;22650;49.350;20.898;2023-07-29T13:07:05;1999.90;;;989.97;;
36653;SDS011;22650;49.350;20.898;2023-07-29T13:09:39;1999.90;;;599.95;;
36653;SDS011;22650;49.350;20.898;2023-07-29T13:12:13;1999.90;;;669.75;;
36653;SDS011;22650;49.350;20.898;2023-07-29T13:14:47;1999.90;;;795.38;;
36653;SDS011;22650;49.350;20.898;2023-07-29T13:17:22;1999.90;;;949.28;;
36653;SDS011;22650;49.350;20.898;2023-07-29T13:19:56;1999.90;;;965.40;;
36653;SDS011;22650;49.350;20.898;2023-07-29T13:22:30;1999.90;;;867.33;;
36653;SDS011;22650;49.350;20.898;2023-07-29T13:25:09;1999.90;;;997.33;;
36653;SDS011;22650;49.350;20.898;2023-07-29T13:27:42;1999.90;;;999.90;;
36653;SDS011;22650;49.350;20.898;2023-07-29T13:30:16;1999.90;;;999.90;;
36653;SDS011;22650;49.350;20.898;2023-07-29T13:32:51;1999.90;;;999.90;;
36653;SDS011;22650;49.350;20.898;2023-07-29T13:35:30;1999.90;;;999.90;;
36653;SDS011;22650;49.350;20.898;2023-07-29T13:38:04;1999.90;;;999.90;;
36653;SDS011;22650;49.350;20.898;2023-07-29T13:40:37;1999.90;;;999.90;;
36653;SDS011;22650;49.350;20.898;2023-07-29T13:43:17;1999.90;;;999.90;;
36653;SDS011;22650;49.350;20.898;2023-07-29T13:45:51;1999.90;;;999.90;;
36653;SDS011;22650;49.350;20.898;2023-07-29T13:48:26;1999.90;;;999.90;;
36653;SDS011;22650;49.350;20.898;2023-07-29T13:51:00;1999.90;;;999.90;;
36653;SDS011;22650;49.350;20.898;2023-07-29T13:53:33;1999.90;;;999.90;;
36653;SDS011;22650;49.350;20.898;2023-07-29T13:56:07;1999.90;;;999.90;;
36653;SDS011;22650;49.350;20.898;2023-07-29T13:58:41;1999.90;;;999.90;;
36653;SDS011;22650;49.350;20.898;2023-07-29T14:01:14;1999.90;;;999.90;;
36653;SDS011;22650;49.350;20.898;2023-07-29T14:03:50;1999.90;;;999.90;;
36653;SDS011;22650;49.350;20.898;2023-07-29T14:06:23;1999.90;;;999.90;;
36653;SDS011;22650;49.350;20.898;2023-07-29T14:09:15;1999.90;;;999.90;;
36653;SDS011;22650;49.350;20.898;2023-07-29T14:11:49;1999.90;;;999.90;;
36653;SDS011;22650;49.350;20.898;2023-07-29T14:14:23;1999.90;;;999.90;;
36653;SDS011;22650;49.350;20.898;2023-07-29T14:16:56;1999.90;;;999.90;;
36653;SDS011;22650;49.350;20.898;2023-07-29T14:19:32;1999.90;;;999.90;;
36653;SDS011;22650;49.350;20.898;2023-07-29T14:22:06;1999.90;;;999.90;;
36653;SDS011;22650;49.350;20.898;2023-07-29T14:24:39;1999.90;;;999.90;;